Terminal Aerodrome Forecast
Issued by NWS

Home | Current Version | Previous Version | Text Only | Print | Product List | Glossary Off
Versions: 1 2 3 4 5 6 7 8 9 10 11 12 13 14

000
FTUS43 KFGF 180500
TAFBJI
TAF
KBJI 180522Z 1806/1906 VRB04KT P6SM SKC
     FM181300 12006KT P6SM SCT150
     FM181700 11013G20KT P6SM SCT100=

USA.gov is the U.S. government's official web portal to all federal, state and local government web resources and services.